createdAt,value
2023-04-01T00:00:16.462Z,48.57
2023-04-01T00:01:16.463Z,48.51
2023-04-01T00:02:16.574Z,48.49
2023-04-01T00:03:16.775Z,48.52
2023-04-01T00:04:16.707Z,48.56
2023-04-01T00:05:16.757Z,48.51
2023-04-01T00:06:16.821Z,48.50
2023-04-01T00:07:16.854Z,48.46
2023-04-01T00:08:16.986Z,48.45
2023-04-01T00:09:17.011Z,48.49
2023-04-01T00:10:17.041Z,48.47
2023-04-01T00:11:17.092Z,48.45
2023-04-01T00:12:17.156Z,48.31
2023-04-01T00:13:17.305Z,48.29
2023-04-01T00:14:17.279Z,48.39
2023-04-01T00:15:17.381Z,48.39
2023-04-01T00:16:22.129Z,48.33
2023-04-01T00:17:19.091Z,48.31
2023-04-01T00:18:17.410Z,48.30
2023-04-01T00:19:17.435Z,48.28
2023-04-01T00:20:17.410Z,48.25
2023-04-01T00:21:17.440Z,48.24
2023-04-01T00:22:17.394Z,48.21
2023-04-01T00:23:17.412Z,48.30
2023-04-01T00:24:17.362Z,48.24
2023-04-01T00:25:17.396Z,48.25
2023-04-01T00:26:17.441Z,48.25
2023-04-01T00:27:17.491Z,48.24
2023-04-01T00:28:17.566Z,48.21
2023-04-01T00:29:17.623Z,48.21
2023-04-01T00:30:17.682Z,48.14
2023-04-01T00:31:17.810Z,48.20
2023-04-01T00:32:17.794Z,48.22
2023-04-01T00:33:17.849Z,48.13
2023-04-01T00:34:17.983Z,48.16
2023-04-01T00:35:17.990Z,48.15
2023-04-01T00:36:18.110Z,48.13
2023-04-01T00:37:18.072Z,48.15
2023-04-01T00:38:18.162Z,48.11
2023-04-01T00:39:18.206Z,48.03
2023-04-01T00:40:18.268Z,48.09
2023-04-01T00:41:18.354Z,48.08
2023-04-01T00:42:18.378Z,48.00
2023-04-01T00:43:18.414Z,48.01
2023-04-01T00:44:18.455Z,47.95
2023-04-01T00:45:18.464Z,47.96
2023-04-01T00:46:18.544Z,47.93
2023-04-01T00:47:18.555Z,47.95
2023-04-01T00:48:18.638Z,47.88
2023-04-01T00:49:18.705Z,47.90
2023-04-01T00:50:18.681Z,47.83
2023-04-01T00:51:18.739Z,47.89
2023-04-01T00:52:18.765Z,47.89
2023-04-01T00:53:18.812Z,47.89
2023-04-01T00:54:18.875Z,47.89
2023-04-01T00:55:18.909Z,47.86
2023-04-01T00:56:18.935Z,47.85
2023-04-01T00:57:19.039Z,47.77
2023-04-01T00:58:19.071Z,47.76
2023-04-01T00:59:19.102Z,47.81
2023-04-01T01:00:19.141Z,47.71
2023-04-01T01:01:19.258Z,47.72
2023-04-01T01:02:19.295Z,47.74
2023-04-01T01:03:19.368Z,47.76
2023-04-01T01:04:19.322Z,47.76
2023-04-01T01:05:19.331Z,47.72
2023-04-01T01:06:19.423Z,47.67
2023-04-01T01:07:19.483Z,47.69
2023-04-01T01:08:19.515Z,47.62
2023-04-01T01:09:19.626Z,47.63
2023-04-01T01:10:19.572Z,47.65
2023-04-01T01:11:19.674Z,47.59
2023-04-01T01:12:19.647Z,47.59
2023-04-01T01:13:19.721Z,47.65
2023-04-01T01:14:19.732Z,47.52
2023-04-01T01:15:19.767Z,47.53
2023-04-01T01:16:19.921Z,47.49
2023-04-01T01:17:19.858Z,47.56
2023-04-01T01:18:19.902Z,47.47
2023-04-01T01:19:19.914Z,47.39
2023-04-01T01:20:26.161Z,47.43
2023-04-01T01:21:20.932Z,47.45
2023-04-01T01:22:19.964Z,47.43
2023-04-01T01:23:19.941Z,47.42
2023-04-01T01:24:19.922Z,47.43
2023-04-01T01:25:19.939Z,47.43
2023-04-01T01:26:19.937Z,47.39
2023-04-01T01:27:19.919Z,47.43
2023-04-01T01:28:19.880Z,47.41
2023-04-01T01:29:19.923Z,47.38
2023-04-01T01:30:19.981Z,47.37
2023-04-01T01:31:20.087Z,47.36
2023-04-01T01:32:20.069Z,47.40
2023-04-01T01:33:20.108Z,47.35
2023-04-01T01:34:20.138Z,47.27
2023-04-01T01:35:20.209Z,47.26
2023-04-01T01:36:20.223Z,47.25
2023-04-01T01:37:20.233Z,47.29
2023-04-01T01:38:20.264Z,47.26
2023-04-01T01:39:20.317Z,47.25
2023-04-01T01:40:20.375Z,47.18
2023-04-01T01:41:20.414Z,47.12
2023-04-01T01:42:20.437Z,47.22
2023-04-01T01:43:20.521Z,47.19
2023-04-01T01:44:20.551Z,47.16
2023-04-01T01:45:20.558Z,47.19
2023-04-01T01:46:20.660Z,47.19
2023-04-01T01:47:20.632Z,47.19
2023-04-01T01:48:20.662Z,47.16
2023-04-01T01:49:20.693Z,47.09
2023-04-01T01:50:20.712Z,47.13
2023-04-01T01:51:20.804Z,47.17
2023-04-01T01:52:20.815Z,47.12
2023-04-01T01:53:20.840Z,47.07
2023-04-01T01:54:20.872Z,47.05
2023-04-01T01:55:20.920Z,47.06
2023-04-01T01:56:20.948Z,47.04
2023-04-01T01:57:21.007Z,47.04
2023-04-01T01:58:21.014Z,46.94
2023-04-01T01:59:21.062Z,47.02
2023-04-01T02:00:21.055Z,47.01
2023-04-01T02:01:21.127Z,46.99
2023-04-01T02:02:21.099Z,46.96
2023-04-01T02:03:21.149Z,46.94
2023-04-01T02:04:21.218Z,46.96
2023-04-01T02:05:21.250Z,46.88
2023-04-01T02:06:21.263Z,46.88
2023-04-01T02:07:21.345Z,46.87
2023-04-01T02:08:21.381Z,46.87
2023-04-01T02:09:21.389Z,46.80
2023-04-01T02:10:21.463Z,46.79
2023-04-01T02:11:21.498Z,46.81
2023-04-01T02:12:21.574Z,46.85
2023-04-01T02:13:21.613Z,46.86
2023-04-01T02:14:21.661Z,46.84
2023-04-01T02:15:21.690Z,46.84
2023-04-01T02:16:21.764Z,46.81
2023-04-01T02:17:21.790Z,46.69
2023-04-01T02:18:21.790Z,46.75
2023-04-01T02:19:21.882Z,46.82
2023-04-01T02:20:21.906Z,46.80
2023-04-01T02:21:21.960Z,46.78
2023-04-01T02:22:21.988Z,46.77
2023-04-01T02:23:21.965Z,46.73
2023-04-01T02:24:22.035Z,46.68
2023-04-01T02:25:22.027Z,46.71
2023-04-01T02:26:22.087Z,46.67
2023-04-01T02:27:22.100Z,46.67
2023-04-01T02:28:22.158Z,46.70
2023-04-01T02:29:22.221Z,46.69
2023-04-01T02:30:22.244Z,46.71
2023-04-01T02:31:22.297Z,46.63
2023-04-01T02:32:22.328Z,46.62
2023-04-01T02:33:22.308Z,46.62
2023-04-01T02:34:22.353Z,46.57
2023-04-01T02:35:22.420Z,46.62
2023-04-01T02:36:22.476Z,46.56
2023-04-01T02:37:22.476Z,46.53
2023-04-01T02:38:22.536Z,46.54
2023-04-01T02:39:22.593Z,46.58
2023-04-01T02:40:22.585Z,46.55
2023-04-01T02:41:22.644Z,46.53
2023-04-01T02:42:22.671Z,46.47
2023-04-01T02:43:22.741Z,46.52
2023-04-01T02:44:22.771Z,46.49
2023-04-01T02:45:22.787Z,46.50
2023-04-01T02:46:22.864Z,46.52
2023-04-01T02:47:22.900Z,46.51
2023-04-01T02:48:22.843Z,46.44
2023-04-01T02:49:22.883Z,46.42
2023-04-01T02:50:22.877Z,46.30
2023-04-01T02:51:22.906Z,46.32
2023-04-01T02:52:22.917Z,46.37
2023-04-01T02:53:22.942Z,46.42
2023-04-01T02:54:22.972Z,46.44
2023-04-01T02:55:22.981Z,46.38
2023-04-01T02:56:22.987Z,46.31
2023-04-01T02:57:23.085Z,46.29
2023-04-01T02:58:22.990Z,46.32
2023-04-01T02:59:23.004Z,46.29
2023-04-01T03:00:23.007Z,46.34
2023-04-01T03:01:23.054Z,46.31
2023-04-01T03:02:23.055Z,46.29
2023-04-01T03:03:23.133Z,46.21
2023-04-01T03:04:23.134Z,46.24
2023-04-01T03:05:23.118Z,46.13
2023-04-01T03:06:23.209Z,46.15
2023-04-01T03:07:23.221Z,46.13
2023-04-01T03:08:23.216Z,46.14
2023-04-01T03:09:23.281Z,46.07
2023-04-01T03:10:23.242Z,46.15
2023-04-01T03:11:23.310Z,46.18
2023-04-01T03:12:23.269Z,46.13
2023-04-01T03:13:23.323Z,46.14
2023-04-01T03:14:23.360Z,46.12
2023-04-01T03:15:23.371Z,46.10
2023-04-01T03:16:23.434Z,46.05
2023-04-01T03:17:23.473Z,46.07
2023-04-01T03:18:23.444Z,46.08
2023-04-01T03:19:23.531Z,46.12
2023-04-01T03:20:23.575Z,46.13
2023-04-01T03:21:23.573Z,46.07
2023-04-01T03:22:23.601Z,46.12
2023-04-01T03:23:23.626Z,46.12
2023-04-01T03:24:23.654Z,46.06
2023-04-01T03:25:23.708Z,46.03
2023-04-01T03:26:23.682Z,45.97
2023-04-01T03:27:23.654Z,45.98
2023-04-01T03:28:23.692Z,45.96
2023-04-01T03:29:23.681Z,45.99
2023-04-01T03:30:23.711Z,45.91
2023-04-01T03:31:23.995Z,45.95
2023-04-01T03:32:23.729Z,45.91
2023-04-01T03:33:23.705Z,45.95
2023-04-01T03:34:23.686Z,45.92
2023-04-01T03:35:23.670Z,45.94
2023-04-01T03:36:23.781Z,45.84
2023-04-01T03:37:23.706Z,45.86
2023-04-01T03:38:23.745Z,45.89
2023-04-01T03:39:23.700Z,45.81
2023-04-01T03:40:23.686Z,45.85
2023-04-01T03:41:23.672Z,45.88
2023-04-01T03:42:23.709Z,45.90
2023-04-01T03:43:23.685Z,45.83
2023-04-01T03:44:23.687Z,45.83
2023-04-01T03:45:23.737Z,45.72
2023-04-01T03:46:23.790Z,45.77
2023-04-01T03:47:23.861Z,45.72
2023-04-01T03:48:23.717Z,45.77
2023-04-01T03:49:23.711Z,45.80
2023-04-01T03:50:23.713Z,45.77
2023-04-01T03:51:23.711Z,45.77
2023-04-01T03:52:23.786Z,45.76
2023-04-01T03:53:23.738Z,45.72
2023-04-01T03:54:23.750Z,45.73
2023-04-01T03:55:23.768Z,45.75
2023-04-01T03:56:23.746Z,45.68
2023-04-01T03:57:23.825Z,45.66
2023-04-01T03:58:23.824Z,45.62
2023-04-01T03:59:23.804Z,45.67
2023-04-01T04:00:23.842Z,45.66
2023-04-01T04:01:23.886Z,45.64
2023-04-01T04:02:23.898Z,45.65
2023-04-01T04:03:23.946Z,45.66
2023-04-01T04:04:23.947Z,45.60
2023-04-01T04:05:23.933Z,45.59
2023-04-01T04:06:23.990Z,45.59
2023-04-01T04:07:23.981Z,45.54
2023-04-01T04:08:23.986Z,45.59
2023-04-01T04:09:24.070Z,45.55
2023-04-01T04:10:24.044Z,45.59
2023-04-01T04:11:24.076Z,45.55
2023-04-01T04:12:24.109Z,45.56
2023-04-01T04:13:24.139Z,45.55
2023-04-01T04:14:24.188Z,45.66
2023-04-01T04:15:24.132Z,45.59
2023-04-01T04:16:24.178Z,45.55
2023-04-01T04:17:24.151Z,45.53
2023-04-01T04:18:24.181Z,45.49
2023-04-01T04:19:24.149Z,45.44
2023-04-01T04:20:24.128Z,45.46
2023-04-01T04:21:24.144Z,45.51
2023-04-01T04:22:24.177Z,45.48
2023-04-01T04:23:24.158Z,45.42
2023-04-01T04:24:24.162Z,45.45
2023-04-01T04:25:24.184Z,45.45
2023-04-01T04:26:24.182Z,45.39
2023-04-01T04:27:24.246Z,45.43
2023-04-01T04:28:24.197Z,45.38
2023-04-01T04:29:24.256Z,45.37
2023-04-01T04:30:24.233Z,45.39
2023-04-01T04:31:24.245Z,45.35
2023-04-01T04:32:24.266Z,45.35
2023-04-01T04:33:24.266Z,45.36
2023-04-01T04:34:25.192Z,45.41
2023-04-01T04:35:24.292Z,45.36
2023-04-01T04:36:24.304Z,45.36
2023-04-01T04:37:24.286Z,45.32
2023-04-01T04:38:24.268Z,45.34
2023-04-01T04:39:24.271Z,45.31
2023-04-01T04:40:24.292Z,45.32
2023-04-01T04:41:24.299Z,45.34
2023-04-01T04:42:24.296Z,45.30
2023-04-01T04:43:24.282Z,45.31
2023-04-01T04:44:24.342Z,45.33
2023-04-01T04:45:24.339Z,45.31
2023-04-01T04:46:24.606Z,45.27
2023-04-01T04:47:24.433Z,45.33
2023-04-01T04:48:24.420Z,45.33
2023-04-01T04:49:24.438Z,45.24
2023-04-01T04:50:24.388Z,45.19
2023-04-01T04:51:24.414Z,45.22
2023-04-01T04:52:24.420Z,45.25
2023-04-01T04:53:24.419Z,45.22
2023-04-01T04:54:24.428Z,45.20
2023-04-01T04:55:24.469Z,45.22
2023-04-01T04:56:24.415Z,45.19
2023-04-01T04:57:24.544Z,45.17
2023-04-01T04:58:24.478Z,45.14
2023-04-01T04:59:24.513Z,45.17
2023-04-01T05:00:24.449Z,45.17
2023-04-01T05:01:24.562Z,45.12
2023-04-01T05:02:24.542Z,45.13
2023-04-01T05:03:24.636Z,45.05
2023-04-01T05:04:24.535Z,45.06
2023-04-01T05:05:24.494Z,45.05
2023-04-01T05:06:24.514Z,45.10
2023-04-01T05:07:24.534Z,45.08
2023-04-01T05:08:24.540Z,45.01
2023-04-01T05:09:24.535Z,45.05
2023-04-01T05:10:24.533Z,45.05
2023-04-01T05:11:24.524Z,45.02
2023-04-01T05:12:24.511Z,45.04
2023-04-01T05:13:24.541Z,45.05
2023-04-01T05:14:24.555Z,45.01
2023-04-01T05:15:24.533Z,45.07
2023-04-01T05:16:24.603Z,45.00
2023-04-01T05:17:24.586Z,44.98
2023-04-01T05:18:24.552Z,44.97
2023-04-01T05:19:24.547Z,44.94
2023-04-01T05:20:24.575Z,44.94
2023-04-01T05:21:24.590Z,44.93
2023-04-01T05:22:24.577Z,44.89
2023-04-01T05:23:24.532Z,44.87
2023-04-01T05:24:24.523Z,44.93
2023-04-01T05:25:24.557Z,44.91
2023-04-01T05:26:24.527Z,44.93
2023-04-01T05:27:24.564Z,44.94
2023-04-01T05:28:24.532Z,44.90
2023-04-01T05:29:24.550Z,44.89
2023-04-01T05:30:24.617Z,44.83
2023-04-01T05:31:24.694Z,44.84
2023-04-01T05:32:24.622Z,44.81
2023-04-01T05:33:24.641Z,44.81
2023-04-01T05:34:24.646Z,44.78
2023-04-01T05:35:24.697Z,44.80
2023-04-01T05:36:24.616Z,44.77
2023-04-01T05:37:24.612Z,44.77
2023-04-01T05:38:24.620Z,44.80
2023-04-01T05:39:24.628Z,44.77
2023-04-01T05:40:24.644Z,44.80
2023-04-01T05:41:24.636Z,44.77
2023-04-01T05:42:24.648Z,44.76
2023-04-01T05:43:24.644Z,44.74
2023-04-01T05:44:24.633Z,44.74
2023-04-01T05:45:24.617Z,44.69
2023-04-01T05:46:24.651Z,44.70
2023-04-01T05:47:24.676Z,44.74
2023-04-01T05:48:24.613Z,44.70
2023-04-01T05:49:26.232Z,44.69
2023-04-01T05:50:24.605Z,44.67
2023-04-01T05:51:24.619Z,44.67
2023-04-01T05:52:24.593Z,44.65
2023-04-01T05:53:24.579Z,44.67
2023-04-01T05:54:24.601Z,44.66
2023-04-01T05:55:24.574Z,44.61
2023-04-01T05:56:24.565Z,44.58
2023-04-01T05:57:24.594Z,44.59
2023-04-01T05:58:24.544Z,44.54
2023-04-01T05:59:24.538Z,44.57
2023-04-01T06:00:24.546Z,44.57
2023-04-01T06:01:24.553Z,44.58
2023-04-01T06:02:24.576Z,44.54
2023-04-01T06:03:24.873Z,44.53
2023-04-01T06:04:24.532Z,44.57
2023-04-01T06:05:24.535Z,44.54
2023-04-01T06:06:24.489Z,44.49
2023-04-01T06:07:24.465Z,44.52
2023-04-01T06:08:24.486Z,44.50
2023-04-01T06:09:24.437Z,44.51
2023-04-01T06:10:24.482Z,44.50
2023-04-01T06:11:24.465Z,44.52
2023-04-01T06:12:25.216Z,44.48
2023-04-01T06:13:24.445Z,44.55
2023-04-01T06:14:24.446Z,44.47
2023-04-01T06:15:24.405Z,44.48
2023-04-01T06:16:24.479Z,44.48
2023-04-01T06:17:24.434Z,44.47
2023-04-01T06:18:24.417Z,44.44
2023-04-01T06:19:24.381Z,44.37
2023-04-01T06:20:24.401Z,44.37
2023-04-01T06:21:24.387Z,44.39
2023-04-01T06:22:24.379Z,44.41
2023-04-01T06:23:24.353Z,44.41
2023-04-01T06:24:24.384Z,44.42
2023-04-01T06:25:24.722Z,44.43
2023-04-01T06:26:24.343Z,44.37
2023-04-01T06:27:24.318Z,44.38
2023-04-01T06:28:25.232Z,44.35
2023-04-01T06:29:24.316Z,44.36
2023-04-01T06:30:24.357Z,44.36
2023-04-01T06:31:24.366Z,44.38
2023-04-01T06:32:24.349Z,44.40
2023-04-01T06:33:24.290Z,44.35
2023-04-01T06:34:24.291Z,44.34
2023-04-01T06:35:24.367Z,44.37
2023-04-01T06:36:24.475Z,44.36
2023-04-01T06:37:24.287Z,44.39
2023-04-01T06:38:24.230Z,44.34
2023-04-01T06:39:24.242Z,44.38
2023-04-01T06:40:24.252Z,44.34
2023-04-01T06:41:24.224Z,44.35
2023-04-01T06:42:24.234Z,44.36
2023-04-01T06:43:24.235Z,44.32
2023-04-01T06:44:24.240Z,44.31
2023-04-01T06:45:24.233Z,44.30
2023-04-01T06:46:24.341Z,44.29
2023-04-01T06:47:24.210Z,44.28
2023-04-01T06:48:24.206Z,44.25
2023-04-01T06:49:24.181Z,44.28
2023-04-01T06:50:24.424Z,44.25
2023-04-01T06:51:24.173Z,44.20
2023-04-01T06:52:24.171Z,44.23
2023-04-01T06:53:24.155Z,44.21
2023-04-01T06:54:24.143Z,44.16
2023-04-01T06:55:24.148Z,44.20
2023-04-01T06:56:24.164Z,44.22
2023-04-01T06:57:24.181Z,44.16
2023-04-01T06:58:24.149Z,44.15
2023-04-01T06:59:24.103Z,44.14
2023-04-01T07:00:24.135Z,44.14
2023-04-01T07:01:24.154Z,44.14
2023-04-01T07:02:24.228Z,44.07
2023-04-01T07:03:24.112Z,44.08
2023-04-01T07:04:24.126Z,44.03
2023-04-01T07:05:24.077Z,44.02
2023-04-01T07:06:24.061Z,44.01
2023-04-01T07:07:24.054Z,43.98
2023-04-01T07:08:24.065Z,43.96
2023-04-01T07:09:24.037Z,43.97
2023-04-01T07:10:24.059Z,43.93
2023-04-01T07:11:24.056Z,43.89
2023-04-01T07:12:24.034Z,43.84
2023-04-01T07:13:24.031Z,43.93
2023-04-01T07:14:23.992Z,43.89
2023-04-01T07:15:24.044Z,43.85
2023-04-01T07:16:24.070Z,43.87
2023-04-01T07:17:24.023Z,43.79
2023-04-01T07:18:23.971Z,43.79
2023-04-01T07:19:23.973Z,43.80
2023-04-01T07:20:23.970Z,43.81
2023-04-01T07:21:23.982Z,43.74
2023-04-01T07:22:23.951Z,43.76
2023-04-01T07:23:23.976Z,43.70
2023-04-01T07:24:23.942Z,43.71
2023-04-01T07:25:23.969Z,43.70
2023-04-01T07:26:23.939Z,43.63
2023-04-01T07:27:23.913Z,43.64
2023-04-01T07:28:23.951Z,43.70
2023-04-01T07:29:25.818Z,43.72
2023-04-01T07:30:23.950Z,43.62
2023-04-01T07:31:23.920Z,43.56
2023-04-01T07:32:23.978Z,43.58
2023-04-01T07:33:23.875Z,43.63
2023-04-01T07:34:23.866Z,43.67
2023-04-01T07:35:23.892Z,43.66
2023-04-01T07:36:23.950Z,43.74
2023-04-01T07:37:23.872Z,43.73
2023-04-01T07:38:23.921Z,43.72
2023-04-01T07:39:23.926Z,43.71
2023-04-01T07:40:23.978Z,43.72
2023-04-01T07:41:24.009Z,43.66
2023-04-01T07:42:24.035Z,43.70
2023-04-01T07:43:24.107Z,43.70
2023-04-01T07:44:24.133Z,43.69
2023-04-01T07:45:24.178Z,43.63
2023-04-01T07:46:24.281Z,43.61
2023-04-01T07:47:24.295Z,43.63
2023-04-01T07:48:24.340Z,43.64
2023-04-01T07:49:24.362Z,43.65
2023-04-01T07:50:24.497Z,43.65
2023-04-01T07:51:24.497Z,43.63
2023-04-01T07:52:24.559Z,43.65
2023-04-01T07:53:24.569Z,43.61
2023-04-01T07:54:24.652Z,43.64
2023-04-01T07:55:24.688Z,43.56
2023-04-01T07:56:24.726Z,43.53
2023-04-01T07:57:24.816Z,43.54
2023-04-01T07:58:24.829Z,43.57
2023-04-01T07:59:24.891Z,43.58
2023-04-01T08:00:24.955Z,43.54
2023-04-01T08:01:24.997Z,43.59
2023-04-01T08:02:25.135Z,43.54
2023-04-01T08:03:25.155Z,43.56
2023-04-01T08:04:25.178Z,43.53
2023-04-01T08:05:25.239Z,43.57
2023-04-01T08:06:25.250Z,43.56
2023-04-01T08:07:25.348Z,43.56
2023-04-01T08:08:25.389Z,43.57
2023-04-01T08:09:25.446Z,43.56
2023-04-01T08:10:25.516Z,43.55
2023-04-01T08:11:25.584Z,43.54
2023-04-01T08:12:25.582Z,43.44
2023-04-01T08:13:25.661Z,43.41
2023-04-01T08:14:25.704Z,43.38
2023-04-01T08:15:25.762Z,43.42
2023-04-01T08:16:25.847Z,43.37
2023-04-01T08:17:25.900Z,43.34
2023-04-01T08:18:25.930Z,43.31
2023-04-01T08:19:25.978Z,43.36
2023-04-01T08:20:26.064Z,43.29
2023-04-01T08:21:26.110Z,43.29
2023-04-01T08:22:26.157Z,43.29
2023-04-01T08:23:26.203Z,43.28
2023-04-01T08:24:29.727Z,43.26
2023-04-01T08:25:27.287Z,43.27
2023-04-01T08:26:26.260Z,43.28
2023-04-01T08:27:26.247Z,43.28
2023-04-01T08:28:26.243Z,43.28
2023-04-01T08:29:26.240Z,43.29
2023-04-01T08:30:26.263Z,43.26
2023-04-01T08:31:26.247Z,43.26
2023-04-01T08:32:26.270Z,43.21
2023-04-01T08:33:26.302Z,43.21
2023-04-01T08:34:26.342Z,43.19
2023-04-01T08:35:26.429Z,43.22
2023-04-01T08:36:26.505Z,43.11
2023-04-01T08:37:26.528Z,43.15
2023-04-01T08:38:26.615Z,43.14
2023-04-01T08:39:26.693Z,43.10
2023-04-01T08:40:26.713Z,43.10
2023-04-01T08:41:26.803Z,43.05
2023-04-01T08:42:26.892Z,43.01
2023-04-01T08:43:26.953Z,43.03
2023-04-01T08:44:26.979Z,43.00
2023-04-01T08:45:27.052Z,43.04
2023-04-01T08:46:27.192Z,43.02
2023-04-01T08:47:27.188Z,42.94
2023-04-01T08:48:27.292Z,42.98
2023-04-01T08:49:27.287Z,42.93
2023-04-01T08:50:27.324Z,42.90
2023-04-01T08:51:27.381Z,42.89
2023-04-01T08:52:27.442Z,42.96
2023-04-01T08:53:27.516Z,42.89
2023-04-01T08:54:27.532Z,42.91
2023-04-01T08:55:27.626Z,42.87
2023-04-01T08:56:27.653Z,42.89
2023-04-01T08:57:27.743Z,42.81
2023-04-01T08:58:27.783Z,42.80
2023-04-01T08:59:27.825Z,42.83
2023-04-01T09:00:27.862Z,42.84
2023-04-01T09:01:27.917Z,42.85
2023-04-01T09:02:28.050Z,42.78
2023-04-01T09:03:28.213Z,42.78
2023-04-01T09:04:28.051Z,42.81
2023-04-01T09:05:28.082Z,42.78
2023-04-01T09:06:28.169Z,42.78
2023-04-01T09:07:28.205Z,42.76
2023-04-01T09:08:28.235Z,42.72
2023-04-01T09:09:28.293Z,42.70
2023-04-01T09:10:28.339Z,42.74
2023-04-01T09:11:28.411Z,42.70
2023-04-01T09:12:28.412Z,42.63
2023-04-01T09:13:28.481Z,42.61
2023-04-01T09:14:28.516Z,42.65
2023-04-01T09:15:28.635Z,42.63
2023-04-01T09:16:28.648Z,42.60
2023-04-01T09:17:28.645Z,42.56
2023-04-01T09:18:28.686Z,42.54
2023-04-01T09:19:28.752Z,42.52
2023-04-01T09:20:28.775Z,42.54
2023-04-01T09:21:28.807Z,42.45
2023-04-01T09:22:28.830Z,42.46
2023-04-01T09:23:28.907Z,42.50
2023-04-01T09:24:28.900Z,42.43
2023-04-01T09:25:28.945Z,42.44
2023-04-01T09:26:28.980Z,42.40
2023-04-01T09:27:29.037Z,42.44
2023-04-01T09:28:29.051Z,42.39
2023-04-01T09:29:29.082Z,42.40
2023-04-01T09:30:29.315Z,42.36
2023-04-01T09:31:29.189Z,42.38
2023-04-01T09:32:29.242Z,42.35
2023-04-01T09:33:29.196Z,42.37
2023-04-01T09:34:29.210Z,42.32
2023-04-01T09:35:29.279Z,42.34
2023-04-01T09:36:30.872Z,42.33
2023-04-01T09:37:29.327Z,42.30
2023-04-01T09:38:29.370Z,42.27
2023-04-01T09:39:29.391Z,42.24
2023-04-01T09:40:29.420Z,42.28
2023-04-01T09:41:29.456Z,42.25
2023-04-01T09:42:29.486Z,42.24
2023-04-01T09:43:29.482Z,42.22
2023-04-01T09:44:29.520Z,42.20
2023-04-01T09:45:29.553Z,42.20
2023-04-01T09:46:29.592Z,42.23
2023-04-01T09:47:29.594Z,42.16
2023-04-01T09:48:29.619Z,42.18
2023-04-01T09:49:29.596Z,42.15
2023-04-01T09:50:29.659Z,42.10
2023-04-01T09:51:29.677Z,42.17
2023-04-01T09:52:29.704Z,42.09
2023-04-01T09:53:29.709Z,42.14
2023-04-01T09:54:29.728Z,42.11
2023-04-01T09:55:29.803Z,42.06
2023-04-01T09:56:29.784Z,42.10
2023-04-01T09:57:29.926Z,42.07
2023-04-01T09:58:29.820Z,42.03
2023-04-01T09:59:29.868Z,42.04
2023-04-01T10:00:29.874Z,42.00
2023-04-01T10:01:29.898Z,42.01
2023-04-01T10:02:30.002Z,42.03
2023-04-01T10:03:30.031Z,42.01
2023-04-01T10:04:29.911Z,42.02
2023-04-01T10:05:29.971Z,42.00
2023-04-01T10:06:29.983Z,41.93
2023-04-01T10:07:30.027Z,41.90
2023-04-01T10:08:30.012Z,41.92
2023-04-01T10:09:30.009Z,41.93
2023-04-01T10:10:30.055Z,41.88
2023-04-01T10:11:30.057Z,41.87
2023-04-01T10:12:30.061Z,41.87
2023-04-01T10:13:30.096Z,41.90
2023-04-01T10:14:30.103Z,41.89
2023-04-01T10:15:30.125Z,41.87
2023-04-01T10:16:30.172Z,41.81
2023-04-01T10:17:30.274Z,41.82
2023-04-01T10:18:30.188Z,41.82
2023-04-01T10:19:30.168Z,41.83
2023-04-01T10:20:30.233Z,41.82
2023-04-01T10:21:30.232Z,41.80
2023-04-01T10:22:30.215Z,41.75
2023-04-01T10:23:30.221Z,41.79
2023-04-01T10:24:30.260Z,41.71
2023-04-01T10:25:30.277Z,41.71
2023-04-01T10:26:30.308Z,41.71
2023-04-01T10:27:30.293Z,41.69
2023-04-01T10:28:30.273Z,41.67
2023-04-01T10:29:30.318Z,41.61
2023-04-01T10:30:30.316Z,41.67
2023-04-01T10:31:30.295Z,41.66
2023-04-01T10:32:30.406Z,41.64
2023-04-01T10:33:30.310Z,41.65
2023-04-01T10:34:30.377Z,41.60
2023-04-01T10:35:30.445Z,41.60
2023-04-01T10:36:30.378Z,41.61
2023-04-01T10:37:30.381Z,41.60
2023-04-01T10:38:30.416Z,41.56
2023-04-01T10:39:30.436Z,41.46
2023-04-01T10:40:30.415Z,41.53
2023-04-01T10:41:30.460Z,41.50
2023-04-01T10:42:30.467Z,41.50
2023-04-01T10:43:30.447Z,41.53
2023-04-01T10:44:30.450Z,41.49
2023-04-01T10:45:30.516Z,41.50
2023-04-01T10:46:30.538Z,41.46
2023-04-01T10:47:30.485Z,41.49
2023-04-01T10:48:30.478Z,41.46
2023-04-01T10:49:30.504Z,41.43
2023-04-01T10:50:30.518Z,41.44
2023-04-01T10:51:30.506Z,41.40
2023-04-01T10:52:30.492Z,41.38
2023-04-01T10:53:30.529Z,41.39
2023-04-01T10:54:30.524Z,41.40
2023-04-01T10:55:30.630Z,41.41
2023-04-01T10:56:30.503Z,41.34
2023-04-01T10:57:30.722Z,41.35
2023-04-01T10:58:30.525Z,41.39
2023-04-01T10:59:30.574Z,41.35
2023-04-01T11:00:30.511Z,41.35
2023-04-01T11:01:30.598Z,41.35
2023-04-01T11:02:30.647Z,41.32
2023-04-01T11:03:30.597Z,41.33
2023-04-01T11:04:30.558Z,41.28
2023-04-01T11:05:30.558Z,41.33
2023-04-01T11:06:30.524Z,41.22
2023-04-01T11:07:30.535Z,41.26
2023-04-01T11:08:30.540Z,41.21
2023-04-01T11:09:30.541Z,41.22
2023-04-01T11:10:30.554Z,41.17
2023-04-01T11:11:30.540Z,41.20
2023-04-01T11:12:30.528Z,41.16
2023-04-01T11:13:30.552Z,41.16
2023-04-01T11:14:30.582Z,41.13
2023-04-01T11:15:30.604Z,41.14
2023-04-01T11:16:30.552Z,41.14
2023-04-01T11:17:30.540Z,41.12
2023-04-01T11:18:30.533Z,41.12
2023-04-01T11:19:30.571Z,41.14
2023-04-01T11:20:30.577Z,41.12
2023-04-01T11:21:30.551Z,41.10
2023-04-01T11:22:30.586Z,41.10
2023-04-01T11:23:30.602Z,41.09
2023-04-01T11:24:30.573Z,41.10
2023-04-01T11:25:30.744Z,41.08
2023-04-01T11:26:30.606Z,41.00
2023-04-01T11:27:30.574Z,41.06
2023-04-01T11:28:30.562Z,41.09
2023-04-01T11:29:30.595Z,41.06
2023-04-01T11:30:30.551Z,41.02
2023-04-01T11:31:30.661Z,40.98
2023-04-01T11:32:30.553Z,41.00
2023-04-01T11:33:30.587Z,41.00
2023-04-01T11:34:30.547Z,41.02
2023-04-01T11:35:30.578Z,41.02
2023-04-01T11:36:30.588Z,40.96
2023-04-01T11:37:30.519Z,40.95
2023-04-01T11:38:30.555Z,40.97
2023-04-01T11:39:30.540Z,40.92
2023-04-01T11:40:30.551Z,40.88
2023-04-01T11:41:30.546Z,40.87
2023-04-01T11:42:30.528Z,40.87
2023-04-01T11:43:33.951Z,40.86
2023-04-01T11:44:30.507Z,40.80
2023-04-01T11:45:30.594Z,40.84
2023-04-01T11:46:30.537Z,40.84
2023-04-01T11:47:30.527Z,40.85
2023-04-01T11:48:30.490Z,40.79
2023-04-01T11:49:30.495Z,40.75
2023-04-01T11:50:30.463Z,40.75
2023-04-01T11:51:30.450Z,40.76
2023-04-01T11:52:30.475Z,40.78
2023-04-01T11:53:30.440Z,40.79
2023-04-01T11:54:30.442Z,40.82
2023-04-01T11:55:30.453Z,40.77
2023-04-01T11:56:30.432Z,40.77
2023-04-01T11:57:30.457Z,40.73
2023-04-01T11:58:30.427Z,40.71
2023-04-01T11:59:30.412Z,40.72
2023-04-01T12:00:30.368Z,40.72
2023-04-01T12:01:30.375Z,40.72
2023-04-01T12:02:30.376Z,40.67
2023-04-01T12:03:30.463Z,40.68
2023-04-01T12:04:30.399Z,40.61
2023-04-01T12:05:30.445Z,40.63
2023-04-01T12:06:30.376Z,40.62
2023-04-01T12:07:30.336Z,40.68
2023-04-01T12:08:30.334Z,40.67
2023-04-01T12:09:30.341Z,40.71
2023-04-01T12:10:30.320Z,40.68
2023-04-01T12:11:30.328Z,40.68
2023-04-01T12:12:30.360Z,40.66
2023-04-01T12:13:30.300Z,40.68
2023-04-01T12:14:30.270Z,40.58
2023-04-01T12:15:30.331Z,40.64
2023-04-01T12:16:30.312Z,40.59
2023-04-01T12:17:30.345Z,40.59
2023-04-01T12:18:30.284Z,40.61
2023-04-01T12:19:30.287Z,40.55
2023-04-01T12:20:30.244Z,40.55
2023-04-01T12:21:30.257Z,40.58
2023-04-01T12:22:32.541Z,40.61
2023-04-01T12:23:30.268Z,40.62
2023-04-01T12:24:30.245Z,40.57
2023-04-01T12:25:30.238Z,40.58
2023-04-01T12:26:30.312Z,40.58
2023-04-01T12:27:30.210Z,40.61
2023-04-01T12:28:30.214Z,40.55
2023-04-01T12:29:30.203Z,40.62
2023-04-01T12:30:30.181Z,40.55
2023-04-01T12:31:30.205Z,40.50
2023-04-01T12:32:30.268Z,40.44
2023-04-01T12:33:30.215Z,40.39
2023-04-01T12:34:30.180Z,40.32
2023-04-01T12:35:30.169Z,40.28
2023-04-01T12:36:30.153Z,40.24
2023-04-01T12:37:30.153Z,40.18
2023-04-01T12:38:30.146Z,40.14
2023-04-01T12:39:30.863Z,40.14
2023-04-01T12:40:30.212Z,40.15
2023-04-01T12:41:30.099Z,40.09
2023-04-01T12:42:30.086Z,40.08
2023-04-01T12:43:30.091Z,40.01
2023-04-01T12:44:30.110Z,40.01
2023-04-01T12:45:30.176Z,40.03
2023-04-01T12:46:30.108Z,40.03
2023-04-01T12:47:30.139Z,39.97
2023-04-01T12:48:30.037Z,40.00
2023-04-01T12:49:30.075Z,39.96
2023-04-01T12:50:30.014Z,39.81
2023-04-01T12:51:30.026Z,39.83
2023-04-01T12:52:30.028Z,39.84